F/V Matmaco — FVNS — position and weather

sailwx.info

Track history (hours):
 
Tides and Currents Weather Stations Pressure Air Temp Water Temp Dewpoint Dewpoint Depression Visibility Wind Speed Wind Dir Waves Ship Positions

F/V Matmaco

Last reported at 2017-Jun-23 04:49 UTC. Time now 2017-Jun-23 13:57 UTC.
Position N 46°23' W 002°60'.

Length 20 m.

Type: Other ship. MMSI: 228194000.

Date/timePositionNaut miles runAvg speedWind from/ knotsBaromVisibWave heightAir tempDewpointWater temp
2017-Jun-23 04:49N 46°23' W 002°60'3 4.0
2017-Jun-23 04:07N 46°26' W 002°57'1 4.0
2017-Jun-23 03:51N 46°26' W 002°56'2 3.7
2017-Jun-23 03:25N 46°28' W 002°55'1 2.6
2017-Jun-23 02:57N 46°27' W 002°53'1 3.0
2017-Jun-23 02:29N 46°26' W 002°52'3 4.1
2017-Jun-23 01:49N 46°24' W 002°50'17 1.4
2017-Jun-22 13:23N 46°08' W 002°41'2 3.4
2017-Jun-22 12:43N 46°07' W 002°38'1 3.6
2017-Jun-22 12:21N 46°07' W 002°36'2 2.9
2017-Jun-22 11:39N 46°09' W 002°34'0 2.1
2017-Jun-22 11:27N 46°09' W 002°33'2 3.2
2017-Jun-22 10:55N 46°08' W 002°31'2 3.5
2017-Jun-22 10:21N 46°07' W 002°34'1 3.7
2017-Jun-22 09:59N 46°07' W 002°36'2 3.6
2017-Jun-22 09:26N 46°07' W 002°38'2 3.7
2017-Jun-22 09:00N 46°08' W 002°41'2 3.7
2017-Jun-22 08:30N 46°09' W 002°43'1 2.3
2017-Jun-22 07:59N 46°10' W 002°43'2 3.4
2017-Jun-22 07:29N 46°10' W 002°41'2 3.5
2017-Jun-22 06:58N 46°09' W 002°39'2 3.5
2017-Jun-22 06:30N 46°08' W 002°37'2 3.9
2017-Jun-22 05:59N 46°07' W 002°35'2 4.0
2017-Jun-22 05:28N 46°07' W 002°32'2 3.8
2017-Jun-22 04:54N 46°05' W 002°30'1 3.6
2017-Jun-22 04:30N 46°04' W 002°30'2 3.6
2017-Jun-22 04:01N 46°02' W 002°28'2 4.1
2017-Jun-22 03:30N 46°02' W 002°25'3 6.6
2017-Jun-22 03:00N 46°05' W 002°21'5 9.6
2017-Jun-22 02:30N 46°08' W 002°17'5 9.6
2017-Jun-22 01:58N 46°12' W 002°11'4 9.6
2017-Jun-22 01:31N 46°15' W 002°07'5 9.5
2017-Jun-22 01:01N 46°18' W 002°02'5 9.3
2017-Jun-22 00:31N 46°21' W 001°57'5 9.0
2017-Jun-22 00:00N 46°24' W 001°53'4 9.0
2017-Jun-21 23:31N 46°28' W 001°48'2 4.5
2017-Jun-21 23:01N 46°30' W 001°48'0 0.0
2017-Jun-21 22:31N 46°30' W 001°48'0 0.0
2017-Jun-21 22:00N 46°30' W 001°48'3 5.2
2017-Jun-21 21:31N 46°28' W 001°49'5 9.3
2017-Jun-21 21:00N 46°25' W 001°55'5 9.2
2017-Jun-21 20:30N 46°23' W 002°01'5 9.2
2017-Jun-21 20:01N 46°21' W 002°07'5 9.3
2017-Jun-21 19:30N 46°18' W 002°13'5 9.1
2017-Jun-21 19:00N 46°16' W 002°18'3 6.8
2017-Jun-21 18:30N 46°14' W 002°22'4 8.8
2017-Jun-21 18:01N 46°12' W 002°28'3 6.6
2017-Jun-21 17:30N 46°10' W 002°32'1 1.3
2017-Jun-21 17:00N 46°10' W 002°33'2 3.5
2017-Jun-21 16:31N 46°09' W 002°32'2 3.1
2017-Jun-21 16:01N 46°07' W 002°32'2 3.5
2017-Jun-21 15:30N 46°08' W 002°34'2 3.3
2017-Jun-21 14:59N 46°07' W 002°36'3 3.4
2017-Jun-21 14:00N 46°08' W 002°41'2 3.9
2017-Jun-21 13:31N 46°08' W 002°43'1 1.3
2017-Jun-21 12:32N 46°08' W 002°42'0 3.7
2017-Jun-21 12:30N 46°08' W 002°41'2 3.8
2017-Jun-21 11:53N 46°08' W 002°38'1 2.5
2017-Jun-21 11:30N 46°07' W 002°37'1 2.5
2017-Jun-21 11:00N 46°07' W 002°35'2 3.5
2017-Jun-21 10:31N 46°07' W 002°33'1 1.7
2017-Jun-21 09:43N 46°09' W 002°33'4 3.6
2017-Jun-21 08:38N 46°10' W 002°38'3 2.8
2017-Jun-21 07:44N 46°08' W 002°38'1 2.7
2017-Jun-21 07:17N 46°08' W 002°40'2 3.6
2017-Jun-21 06:45N 46°08' W 002°43'1 3.4
2017-Jun-21 06:29N 46°08' W 002°44'1 1.8
2017-Jun-21 06:00N 46°09' W 002°42'2 3.4
2017-Jun-21 05:29N 46°08' W 002°40'2 3.6
2017-Jun-21 04:59N 46°07' W 002°38'2 3.8
2017-Jun-21 04:30N 46°05' W 002°37'2 3.7
2017-Jun-21 04:00N 46°05' W 002°34'2 3.9
2017-Jun-21 03:30N 46°06' W 002°32'2 3.8
2017-Jun-21 02:52N 46°07' W 002°29'3 7.8
2017-Jun-21 02:31N 46°08' W 002°25'6 8.4
2017-Jun-21 01:46N 46°12' W 002°18'2 8.4
2017-Jun-21 01:31N 46°14' W 002°16'4 8.2
2017-Jun-21 01:01N 46°16' W 002°11'4 8.2
2017-Jun-21 00:30N 46°19' W 002°06'4 7.9
2017-Jun-21 00:00N 46°21' W 002°01'4 8.0
2017-Jun-20 23:31N 46°24' W 001°57'4 7.8
2017-Jun-20 23:00N 46°26' W 001°52'4 7.9
2017-Jun-20 22:31N 46°28' W 001°48'2 3.4
2017-Jun-20 22:01N 46°30' W 001°48'0 0.0
2017-Jun-20 21:31N 46°30' W 001°48'2 3.0
2017-Jun-20 21:01N 46°28' W 001°48'4 8.4
2017-Jun-20 20:31N 46°26' W 001°53'4 8.5
2017-Jun-20 20:00N 46°24' W 001°58'4 8.3
2017-Jun-20 19:31N 46°22' W 002°04'4 8.2
2017-Jun-20 19:01N 46°20' W 002°09'4 8.5
2017-Jun-20 18:31N 46°18' W 002°14'4 8.3
2017-Jun-20 18:01N 46°16' W 002°19'4 8.1
2017-Jun-20 17:31N 46°14' W 002°24'4 8.1
2017-Jun-20 17:01N 46°12' W 002°29'4 7.7
2017-Jun-20 16:31N 46°10' W 002°34'1 1.9
2017-Jun-20 16:01N 46°09' W 002°33'2 3.6
2017-Jun-20 15:30N 46°08' W 002°32'1 2.5
2017-Jun-20 15:01N 46°07' W 002°33'2 3.5
2017-Jun-20 14:30N 46°07' W 002°36'2 1.7
2017-Jun-20 13:30N 46°09' W 002°36'2 3.6
2017-Jun-20 13:00N 46°09' W 002°33'2 3.6
2017-Jun-20 12:31N 46°08' W 002°31'0 0.8
2017-Jun-20 12:00N 46°07' W 002°31'2 3.8
2017-Jun-20 11:31N 46°07' W 002°33'2 3.8
2017-Jun-20 11:01N 46°07' W 002°36'2 3.8
2017-Jun-20 10:26N 46°08' W 002°39'2 3.8
2017-Jun-20 09:59N 46°08' W 002°42'2 3.1
2017-Jun-20 09:26N 46°09' W 002°44'1 2.6
2017-Jun-20 09:00N 46°08' W 002°42'2 2.8
2017-Jun-20 08:17N 46°07' W 002°40'1 2.5
2017-Jun-20 08:00N 46°07' W 002°40'2 2.6
2017-Jun-20 07:08N 46°08' W 002°36'0 3.5
2017-Jun-20 07:00N 46°07' W 002°36'2 3.5
2017-Jun-20 06:31N 46°07' W 002°33'2 3.6
2017-Jun-20 05:58N 46°06' W 002°31'2 3.9
2017-Jun-20 05:30N 46°04' W 002°30'5 0.8
2017-Jun-19 22:52N 46°07' W 002°36'1 3.8
2017-Jun-19 22:31N 46°07' W 002°34'4 3.1
2017-Jun-19 21:17N 46°09' W 002°29'5 0.4
2017-Jun-19 07:59N 46°03' W 002°29'2 3.7
2017-Jun-19 07:30N 46°05' W 002°29'57 8.4
2017-Jun-19 00:39N 47°02' W 002°33'410.0
2017-Jun-19 00:15N 47°06' W 002°33'310.2
2017-Jun-18 23:55N 47°10' W 002°33'410.2
2017-Jun-18 23:30N 47°14' W 002°34'4 8.4
2017-Jun-18 23:00N 47°18' W 002°34'2 4.0
2017-Jun-18 22:30N 47°18' W 002°31'0 0.0
2017-Jun-17 03:36N 47°18' W 002°31'0 0.0
2017-Jun-17 03:08N 47°18' W 002°31'0 0.0
2017-Jun-17 03:00N 47°18' W 002°31'0 0.0
2017-Jun-17 00:53N 47°18' W 002°31'0 0.0
2017-Jun-17 00:30N 47°18' W 002°31'0 0.1
2017-Jun-17 00:00N 47°18' W 002°31'0 0.0
2017-Jun-16 23:16N 47°18' W 002°31'2 6.0
2017-Jun-16 22:54N 47°18' W 002°34'4 7.9
2017-Jun-16 22:27N 47°15' W 002°34'67 4.7
2017-Jun-16 08:14N 46°07' W 002°34'1 2.7
2017-Jun-16 07:54N 46°08' W 002°32'14 0.7
2017-Jun-15 10:10N 46°12' W 002°52'4 2.8
2017-Jun-15 08:41N 46°14' W 002°47'1 3.8
2017-Jun-15 08:30N 46°14' W 002°46'8 2.7
2017-Jun-15 05:35N 46°21' W 002°52'1 3.8
2017-Jun-15 05:24N 46°22' W 002°52'2 3.8
2017-Jun-15 04:55N 46°24' W 002°53'2 3.7
2017-Jun-15 04:29N 46°25' W 002°54'3 3.9
2017-Jun-15 03:42N 46°28' W 002°55'3 9.5
2017-Jun-15 03:26N 46°31' W 002°54'4 9.5
2017-Jun-15 02:59N 46°35' W 002°52'5 9.4
2017-Jun-15 02:30N 46°39' W 002°51'6 9.2
2017-Jun-15 01:51N 46°45' W 002°48'4 9.3
2017-Jun-15 01:26N 46°49' W 002°47'4 9.5
2017-Jun-15 01:00N 46°52' W 002°45'5 9.5
2017-Jun-15 00:30N 46°57' W 002°43'5 9.6
2017-Jun-15 00:00N 47°02' W 002°41'5 9.7
2017-Jun-14 23:30N 47°06' W 002°39'510.0
2017-Jun-14 23:00N 47°11' W 002°37'5 9.9
2017-Jun-14 22:30N 47°16' W 002°35'4 7.6
2017-Jun-14 22:00N 47°19' W 002°32'1 2.4
2017-Jun-14 21:30N 47°18' W 002°31'0 0.0
2017-Jun-14 20:55N 47°18' W 002°31'1 3.2
2017-Jun-14 20:30N 47°19' W 002°32'4 7.5
2017-Jun-14 20:00N 47°16' W 002°35'4 8.7
2017-Jun-14 19:30N 47°12' W 002°36'4 8.7
2017-Jun-14 19:00N 47°07' W 002°38'5 9.1
2017-Jun-14 18:30N 47°03' W 002°40'5 9.3
2017-Jun-14 18:00N 46°58' W 002°41'5 9.3
2017-Jun-14 17:29N 46°54' W 002°43'5 9.6
2017-Jun-14 16:59N 46°49' W 002°44'28 0.9
2017-Jun-13 10:06N 46°22' W 002°53'1 3.6
2017-Jun-13 09:57N 46°22' W 002°53'2 3.5
2017-Jun-13 09:29N 46°20' W 002°52'2 3.5
2017-Jun-13 08:50N 46°18' W 002°51'1 3.5
2017-Jun-13 08:29N 46°17' W 002°50'5 2.4
2017-Jun-13 06:29N 46°21' W 002°53'  
Track history (hours):
 
Tides and Currents Weather Stations Pressure Air Temp Water Temp Dewpoint Dewpoint Depression Visibility Wind Speed Wind Dir Waves Ship Positions

F/V Matmaco

Last reported at 2017-Jun-23 04:49 UTC. Time now 2017-Jun-23 13:57 UTC.
Position N 46°23' W 002°60'.

Length 20 m.

Type: Other ship. MMSI: 228194000.

Date/timePositionNaut miles runAvg speedWind from/ knotsBaromVisibWave heightAir tempDewpointWater temp
2017-Jun-23 04:49N 46°23' W 002°60'3 4.0
2017-Jun-23 04:07N 46°26' W 002°57'1 4.0
2017-Jun-23 03:51N 46°26' W 002°56'2 3.7
2017-Jun-23 03:25N 46°28' W 002°55'1 2.6
2017-Jun-23 02:57N 46°27' W 002°53'1 3.0
2017-Jun-23 02:29N 46°26' W 002°52'3 4.1
2017-Jun-23 01:49N 46°24' W 002°50'17 1.4
2017-Jun-22 13:23N 46°08' W 002°41'2 3.4
2017-Jun-22 12:43N 46°07' W 002°38'1 3.6
2017-Jun-22 12:21N 46°07' W 002°36'2 2.9
2017-Jun-22 11:39N 46°09' W 002°34'0 2.1
2017-Jun-22 11:27N 46°09' W 002°33'2 3.2
2017-Jun-22 10:55N 46°08' W 002°31'2 3.5
2017-Jun-22 10:21N 46°07' W 002°34'1 3.7
2017-Jun-22 09:59N 46°07' W 002°36'2 3.6
2017-Jun-22 09:26N 46°07' W 002°38'2 3.7
2017-Jun-22 09:00N 46°08' W 002°41'2 3.7
2017-Jun-22 08:30N 46°09' W 002°43'1 2.3
2017-Jun-22 07:59N 46°10' W 002°43'2 3.4
2017-Jun-22 07:29N 46°10' W 002°41'2 3.5
2017-Jun-22 06:58N 46°09' W 002°39'2 3.5
2017-Jun-22 06:30N 46°08' W 002°37'2 3.9
2017-Jun-22 05:59N 46°07' W 002°35'2 4.0
2017-Jun-22 05:28N 46°07' W 002°32'2 3.8
2017-Jun-22 04:54N 46°05' W 002°30'1 3.6
2017-Jun-22 04:30N 46°04' W 002°30'2 3.6
2017-Jun-22 04:01N 46°02' W 002°28'2 4.1
2017-Jun-22 03:30N 46°02' W 002°25'3 6.6
2017-Jun-22 03:00N 46°05' W 002°21'5 9.6
2017-Jun-22 02:30N 46°08' W 002°17'5 9.6
2017-Jun-22 01:58N 46°12' W 002°11'4 9.6
2017-Jun-22 01:31N 46°15' W 002°07'5 9.5
2017-Jun-22 01:01N 46°18' W 002°02'5 9.3
2017-Jun-22 00:31N 46°21' W 001°57'5 9.0
2017-Jun-22 00:00N 46°24' W 001°53'4 9.0
2017-Jun-21 23:31N 46°28' W 001°48'2 4.5
2017-Jun-21 23:01N 46°30' W 001°48'0 0.0
2017-Jun-21 22:31N 46°30' W 001°48'0 0.0
2017-Jun-21 22:00N 46°30' W 001°48'3 5.2
2017-Jun-21 21:31N 46°28' W 001°49'5 9.3
2017-Jun-21 21:00N 46°25' W 001°55'5 9.2
2017-Jun-21 20:30N 46°23' W 002°01'5 9.2
2017-Jun-21 20:01N 46°21' W 002°07'5 9.3
2017-Jun-21 19:30N 46°18' W 002°13'5 9.1
2017-Jun-21 19:00N 46°16' W 002°18'3 6.8
2017-Jun-21 18:30N 46°14' W 002°22'4 8.8
2017-Jun-21 18:01N 46°12' W 002°28'3 6.6
2017-Jun-21 17:30N 46°10' W 002°32'1 1.3
2017-Jun-21 17:00N 46°10' W 002°33'2 3.5
2017-Jun-21 16:31N 46°09' W 002°32'2 3.1
2017-Jun-21 16:01N 46°07' W 002°32'2 3.5
2017-Jun-21 15:30N 46°08' W 002°34'2 3.3
2017-Jun-21 14:59N 46°07' W 002°36'3 3.4
2017-Jun-21 14:00N 46°08' W 002°41'2 3.9
2017-Jun-21 13:31N 46°08' W 002°43'1 1.3
2017-Jun-21 12:32N 46°08' W 002°42'0 3.7
2017-Jun-21 12:30N 46°08' W 002°41'2 3.8
2017-Jun-21 11:53N 46°08' W 002°38'1 2.5
2017-Jun-21 11:30N 46°07' W 002°37'1 2.5
2017-Jun-21 11:00N 46°07' W 002°35'2 3.5
2017-Jun-21 10:31N 46°07' W 002°33'1 1.7
2017-Jun-21 09:43N 46°09' W 002°33'4 3.6
2017-Jun-21 08:38N 46°10' W 002°38'3 2.8
2017-Jun-21 07:44N 46°08' W 002°38'1 2.7
2017-Jun-21 07:17N 46°08' W 002°40'2 3.6
2017-Jun-21 06:45N 46°08' W 002°43'1 3.4
2017-Jun-21 06:29N 46°08' W 002°44'1 1.8
2017-Jun-21 06:00N 46°09' W 002°42'2 3.4
2017-Jun-21 05:29N 46°08' W 002°40'2 3.6
2017-Jun-21 04:59N 46°07' W 002°38'2 3.8
2017-Jun-21 04:30N 46°05' W 002°37'2 3.7
2017-Jun-21 04:00N 46°05' W 002°34'2 3.9
2017-Jun-21 03:30N 46°06' W 002°32'2 3.8
2017-Jun-21 02:52N 46°07' W 002°29'3 7.8
2017-Jun-21 02:31N 46°08' W 002°25'6 8.4
2017-Jun-21 01:46N 46°12' W 002°18'2 8.4
2017-Jun-21 01:31N 46°14' W 002°16'4 8.2
2017-Jun-21 01:01N 46°16' W 002°11'4 8.2
2017-Jun-21 00:30N 46°19' W 002°06'4 7.9
2017-Jun-21 00:00N 46°21' W 002°01'4 8.0
2017-Jun-20 23:31N 46°24' W 001°57'4 7.8
2017-Jun-20 23:00N 46°26' W 001°52'4 7.9
2017-Jun-20 22:31N 46°28' W 001°48'2 3.4
2017-Jun-20 22:01N 46°30' W 001°48'0 0.0
2017-Jun-20 21:31N 46°30' W 001°48'2 3.0
2017-Jun-20 21:01N 46°28' W 001°48'4 8.4
2017-Jun-20 20:31N 46°26' W 001°53'4 8.5
2017-Jun-20 20:00N 46°24' W 001°58'4 8.3
2017-Jun-20 19:31N 46°22' W 002°04'4 8.2
2017-Jun-20 19:01N 46°20' W 002°09'4 8.5
2017-Jun-20 18:31N 46°18' W 002°14'4 8.3
2017-Jun-20 18:01N 46°16' W 002°19'4 8.1
2017-Jun-20 17:31N 46°14' W 002°24'4 8.1
2017-Jun-20 17:01N 46°12' W 002°29'4 7.7
2017-Jun-20 16:31N 46°10' W 002°34'1 1.9
2017-Jun-20 16:01N 46°09' W 002°33'2 3.6
2017-Jun-20 15:30N 46°08' W 002°32'1 2.5
2017-Jun-20 15:01N 46°07' W 002°33'2 3.5
2017-Jun-20 14:30N 46°07' W 002°36'2 1.7
2017-Jun-20 13:30N 46°09' W 002°36'2 3.6
2017-Jun-20 13:00N 46°09' W 002°33'2 3.6
2017-Jun-20 12:31N 46°08' W 002°31'0 0.8
2017-Jun-20 12:00N 46°07' W 002°31'2 3.8
2017-Jun-20 11:31N 46°07' W 002°33'2 3.8
2017-Jun-20 11:01N 46°07' W 002°36'2 3.8
2017-Jun-20 10:26N 46°08' W 002°39'2 3.8
2017-Jun-20 09:59N 46°08' W 002°42'2 3.1
2017-Jun-20 09:26N 46°09' W 002°44'1 2.6
2017-Jun-20 09:00N 46°08' W 002°42'2 2.8
2017-Jun-20 08:17N 46°07' W 002°40'1 2.5
2017-Jun-20 08:00N 46°07' W 002°40'2 2.6
2017-Jun-20 07:08N 46°08' W 002°36'0 3.5
2017-Jun-20 07:00N 46°07' W 002°36'2 3.5
2017-Jun-20 06:31N 46°07' W 002°33'2 3.6
2017-Jun-20 05:58N 46°06' W 002°31'2 3.9
2017-Jun-20 05:30N 46°04' W 002°30'5 0.8
2017-Jun-19 22:52N 46°07' W 002°36'1 3.8
2017-Jun-19 22:31N 46°07' W 002°34'4 3.1
2017-Jun-19 21:17N 46°09' W 002°29'5 0.4
2017-Jun-19 07:59N 46°03' W 002°29'2 3.7
2017-Jun-19 07:30N 46°05' W 002°29'57 8.4
2017-Jun-19 00:39N 47°02' W 002°33'410.0
2017-Jun-19 00:15N 47°06' W 002°33'310.2
2017-Jun-18 23:55N 47°10' W 002°33'410.2
2017-Jun-18 23:30N 47°14' W 002°34'4 8.4
2017-Jun-18 23:00N 47°18' W 002°34'2 4.0
2017-Jun-18 22:30N 47°18' W 002°31'0 0.0
2017-Jun-17 03:36N 47°18' W 002°31'0 0.0
2017-Jun-17 03:08N 47°18' W 002°31'0 0.0
2017-Jun-17 03:00N 47°18' W 002°31'0 0.0
2017-Jun-17 00:53N 47°18' W 002°31'0 0.0
2017-Jun-17 00:30N 47°18' W 002°31'0 0.1
2017-Jun-17 00:00N 47°18' W 002°31'0 0.0
2017-Jun-16 23:16N 47°18' W 002°31'2 6.0
2017-Jun-16 22:54N 47°18' W 002°34'4 7.9
2017-Jun-16 22:27N 47°15' W 002°34'67 4.7
2017-Jun-16 08:14N 46°07' W 002°34'1 2.7
2017-Jun-16 07:54N 46°08' W 002°32'14 0.7
2017-Jun-15 10:10N 46°12' W 002°52'4 2.8
2017-Jun-15 08:41N 46°14' W 002°47'1 3.8
2017-Jun-15 08:30N 46°14' W 002°46'8 2.7
2017-Jun-15 05:35N 46°21' W 002°52'1 3.8
2017-Jun-15 05:24N 46°22' W 002°52'2 3.8
2017-Jun-15 04:55N 46°24' W 002°53'2 3.7
2017-Jun-15 04:29N 46°25' W 002°54'3 3.9
2017-Jun-15 03:42N 46°28' W 002°55'3 9.5
2017-Jun-15 03:26N 46°31' W 002°54'4 9.5
2017-Jun-15 02:59N 46°35' W 002°52'5 9.4
2017-Jun-15 02:30N 46°39' W 002°51'6 9.2
2017-Jun-15 01:51N 46°45' W 002°48'4 9.3
2017-Jun-15 01:26N 46°49' W 002°47'4 9.5
2017-Jun-15 01:00N 46°52' W 002°45'5 9.5
2017-Jun-15 00:30N 46°57' W 002°43'5 9.6
2017-Jun-15 00:00N 47°02' W 002°41'5 9.7
2017-Jun-14 23:30N 47°06' W 002°39'510.0
2017-Jun-14 23:00N 47°11' W 002°37'5 9.9
2017-Jun-14 22:30N 47°16' W 002°35'4 7.6
2017-Jun-14 22:00N 47°19' W 002°32'1 2.4
2017-Jun-14 21:30N 47°18' W 002°31'0 0.0
2017-Jun-14 20:55N 47°18' W 002°31'1 3.2
2017-Jun-14 20:30N 47°19' W 002°32'4 7.5
2017-Jun-14 20:00N 47°16' W 002°35'4 8.7
2017-Jun-14 19:30N 47°12' W 002°36'4 8.7
2017-Jun-14 19:00N 47°07' W 002°38'5 9.1
2017-Jun-14 18:30N 47°03' W 002°40'5 9.3
2017-Jun-14 18:00N 46°58' W 002°41'5 9.3
2017-Jun-14 17:29N 46°54' W 002°43'5 9.6
2017-Jun-14 16:59N 46°49' W 002°44'28 0.9
2017-Jun-13 10:06N 46°22' W 002°53'1 3.6
2017-Jun-13 09:57N 46°22' W 002°53'2 3.5
2017-Jun-13 09:29N 46°20' W 002°52'2 3.5
2017-Jun-13 08:50N 46°18' W 002°51'1 3.5
2017-Jun-13 08:29N 46°17' W 002°50'5 2.4
2017-Jun-13 06:29N 46°21' W 002°53'  

Dump ship's entire track history